Orlando, Florida
Current Conditions -  °F | °C
As of 7:53 AM on Sunday 23 Nov 2014 (Local Time) from KORL Reporting Station
Overcast Overcast  
Wind Chill: 73°   Ceiling: 800
Heat Index: 73°   Visibility: 10mi
Dew Point: 72°   Wind: 10mph
Humidity: 96%   Direction: 150°SSE
Pressure: 30.02"   Gusts: NA
Location:  28.54°N, 81.38°W
Report Text: KORL 231253Z 15009KT 10SM OVC008 23/22 A3002 RMK AO2 CIG 007V012 SLP169 T02280222
Loading
Personal Weather Stations






























Interactive Weather Map New forecast layout! Learn more

10-Day Weather Forecast

Advertisements
Track Severe Weather on mobile